Time;durP1;ratioP1;P1;durP2;ratioP2;P2;SDS_P1;SDS_P2;PMS_P1;PMS_P2;Temp;Humidity;BMP_temperature;BMP_pressure;BME280_temperature;BME280_humidity;BME280_pressure;Samples;Min_cycle;Max_cycle;Signal;HPM_P1;HPM_P2
2022/01/25 00:10:40;;;;;;;8.43;1.40;;;;;;;;;;5062350;28;20040;-69
2022/01/25 00:26:58;;;;;;;6.80;1.65;;;;;;;;;;5062318;28;20039;-68
2022/01/25 00:29:46;;;;;;;4.95;1.63;;;;;;;;;;5062891;28;20119;-69
2022/01/25 00:32:13;;;;;;;4.63;1.55;;;;;;;;;;5061991;28;20060;-69
2022/01/25 00:34:47;;;;;;;7.32;1.92;;;;;;;;;;5062596;28;20088;-69
2022/01/25 00:37:13;;;;;;;10.00;1.90;;;;;;;;;;5062233;28;20572;-68
2022/01/25 00:39:40;;;;;;;6.97;1.58;;;;;;;;;;5061743;28;20060;-69
2022/01/25 00:42:08;;;;;;;8.30;1.50;;;;;;;;;;5062145;28;20025;-71
2022/01/25 00:44:37;;;;;;;9.68;1.48;;;;;;;;;;5061831;28;20036;-70
2022/01/25 00:47:07;;;;;;;6.00;1.60;;;;;;;;;;5062481;28;20052;-69
2022/01/25 00:49:39;;;;;;;2.88;1.30;;;;;;;;;;5061947;28;20029;-69
2022/01/25 00:53:55;;;;;;;7.60;2.47;;;;;;;;;;5062124;28;20053;-70
2022/01/25 00:55:03;;;;;;;13.35;2.05;;;;;;;;;;5056617;28;20052;-70
2022/01/25 00:57:29;;;;;;;6.43;1.45;;;;;;;;;;5061588;28;20040;-69
2022/01/25 00:59:57;;;;;;;9.10;1.58;;;;;;;;;;5062382;28;20029;-68
2022/01/25 01:02:25;;;;;;;7.30;1.40;;;;;;;;;;5062268;28;20029;-70
2022/01/25 01:04:51;;;;;;;3.85;1.33;;;;;;;;;;5055218;28;20211;-71
2022/01/25 01:07:17;;;;;;;6.30;1.65;;;;;;;;;;5082204;28;20021;-70
2022/01/25 01:09:49;;;;;;;4.50;1.40;;;;;;;;;;5081640;28;20035;-69
2022/01/25 01:13:11;;;;;;;5.53;1.65;;;;;;;;;;5081847;28;20033;-71
2022/01/25 01:29:02;;;;;;;4.57;1.80;;;;;;;;;;5081866;28;20036;-69
2022/01/25 01:34:25;;;;;;;4.82;1.58;;;;;;;;;;5085251;28;20070;-70
2022/01/25 01:45:07;;;;;;;6.55;1.95;;;;;;;;;;5085632;28;20029;-70
2022/01/25 01:47:42;;;;;;;4.90;2.28;;;;;;;;;;5085364;28;20017;-70
2022/01/25 01:50:13;;;;;;;5.03;1.70;;;;;;;;;;5085382;28;20023;-71
2022/01/25 01:52:41;;;;;;;9.20;1.75;;;;;;;;;;5067536;28;20032;-70
2022/01/25 01:55:12;;;;;;;3.90;1.40;;;;;;;;;;5085329;28;20047;-70
2022/01/25 01:57:38;;;;;;;6.03;1.55;;;;;;;;;;5083856;28;20032;-70
2022/01/25 02:00:08;;;;;;;8.82;1.70;;;;;;;;;;5085397;28;20017;-70
2022/01/25 02:02:34;;;;;;;6.35;1.52;;;;;;;;;;5085137;28;20071;-70
2022/01/25 02:04:59;;;;;;;6.95;1.95;;;;;;;;;;5084934;28;20132;-70
2022/01/25 02:07:25;;;;;;;8.25;1.60;;;;;;;;;;5085136;28;20074;-70
2022/01/25 02:09:51;;;;;;;6.97;1.20;;;;;;;;;;5067200;28;20052;-69
2022/01/25 02:12:16;;;;;;;6.45;1.40;;;;;;;;;;5067022;28;20393;-70
2022/01/25 02:14:42;;;;;;;8.13;1.73;;;;;;;;;;5085000;28;20457;-69
2022/01/25 02:22:56;;;;;;;6.93;1.83;;;;;;;;;;5084341;28;20071;-70
2022/01/25 02:25:23;;;;;;;5.85;1.48;;;;;;;;;;5084917;28;20097;-69
2022/01/25 02:27:49;;;;;;;7.15;1.92;;;;;;;;;;5065697;28;20376;-70
2022/01/25 02:30:15;;;;;;;4.10;1.50;;;;;;;;;;5066739;28;20054;-69
2022/01/25 02:32:40;;;;;;;9.13;2.13;;;;;;;;;;5084210;28;20087;-69
2022/01/25 02:35:07;;;;;;;5.20;1.45;;;;;;;;;;5065809;28;20104;-70
2022/01/25 02:37:32;;;;;;;8.80;1.48;;;;;;;;;;5084562;28;20050;-70
2022/01/25 02:39:58;;;;;;;5.22;1.77;;;;;;;;;;5085035;28;20032;-70
2022/01/25 02:42:25;;;;;;;5.35;1.90;;;;;;;;;;5084410;28;20040;-70
2022/01/25 02:44:50;;;;;;;8.55;1.88;;;;;;;;;;5084405;28;20033;-69
2022/01/25 02:50:02;;;;;;;5.25;1.50;;;;;;;;;;5084121;28;20099;-69
2022/01/25 02:52:30;;;;;;;7.78;1.48;;;;;;;;;;5084196;28;20072;-70
2022/01/25 02:54:56;;;;;;;9.52;2.00;;;;;;;;;;5084225;28;20035;-70
2022/01/25 02:57:22;;;;;;;10.57;1.85;;;;;;;;;;5083612;28;20412;-70
2022/01/25 02:59:48;;;;;;;9.52;2.28;;;;;;;;;;5066152;28;20021;-70
2022/01/25 03:02:17;;;;;;;4.68;2.03;;;;;;;;;;5083925;28;20040;-70
2022/01/25 03:04:45;;;;;;;5.47;2.05;;;;;;;;;;5083609;28;20444;-70
2022/01/25 03:07:11;;;;;;;10.85;1.65;;;;;;;;;;5082549;28;20148;-69
2022/01/25 03:09:40;;;;;;;6.30;1.40;;;;;;;;;;5083957;28;20033;-72
2022/01/25 03:12:07;;;;;;;7.82;1.52;;;;;;;;;;5084029;28;20035;-71
2022/01/25 03:14:36;;;;;;;8.63;1.67;;;;;;;;;;5082612;28;20401;-70
2022/01/25 03:22:13;;;;;;;5.80;1.38;;;;;;;;;;5083075;28;20029;-71
2022/01/25 03:24:39;;;;;;;6.28;1.73;;;;;;;;;;5083635;28;20054;-70
2022/01/25 03:30:26;;;;;;;5.10;1.70;;;;;;;;;;5082279;28;20035;-70
2022/01/25 03:32:52;;;;;;;6.95;1.60;;;;;;;;;;5065403;28;20127;-70
2022/01/25 03:35:18;;;;;;;3.22;1.30;;;;;;;;;;5083113;28;20028;-72
2022/01/25 03:37:45;;;;;;;4.55;1.40;;;;;;;;;;5083399;28;20032;-70
2022/01/25 03:40:11;;;;;;;4.07;1.40;;;;;;;;;;5083569;28;20033;-70
2022/01/25 03:42:39;;;;;;;5.05;1.27;;;;;;;;;;5065020;28;20047;-69
2022/01/25 03:45:07;;;;;;;6.95;1.52;;;;;;;;;;5082204;28;20036;-70
2022/01/25 03:47:45;;;;;;;6.38;1.70;;;;;;;;;;5082977;28;20031;-70
2022/01/25 03:50:11;;;;;;;5.18;1.73;;;;;;;;;;5083209;28;20040;-72
2022/01/25 03:52:39;;;;;;;5.93;1.60;;;;;;;;;;5082615;28;20036;-71
2022/01/25 03:55:06;;;;;;;5.65;1.50;;;;;;;;;;5082876;28;20037;-69
2022/01/25 03:57:31;;;;;;;6.07;1.50;;;;;;;;;;5083107;28;20024;-70
2022/01/25 04:00:00;;;;;;;5.15;1.52;;;;;;;;;;5082578;28;20115;-69
2022/01/25 04:02:29;;;;;;;3.58;1.50;;;;;;;;;;5082837;28;20040;-71
2022/01/25 04:04:57;;;;;;;6.88;2.00;;;;;;;;;;5070001;28;20109;-70
2022/01/25 04:07:41;;;;;;;2.60;1.10;;;;;;;;;;5062864;28;20029;-69
2022/01/25 04:10:07;;;;;;;3.63;1.60;;;;;;;;;;5062967;28;20024;-71
2022/01/25 04:12:32;;;;;;;7.97;1.80;;;;;;;;;;5062492;28;20040;-69
2022/01/25 04:14:59;;;;;;;4.70;1.77;;;;;;;;;;5062573;28;20036;-69
2022/01/25 04:17:25;;;;;;;6.35;1.50;;;;;;;;;;5062526;28;20039;-69
2022/01/25 04:20:11;;;;;;;6.00;1.17;;;;;;;;;;5062812;28;20025;-70
2022/01/25 04:25:20;;;;;;;;;;;;;;;;;;5063569;28;20047;-69
2022/01/25 04:27:51;;;;;;;3.35;1.33;;;;;;;;;;5061922;28;20335;-69
2022/01/25 04:30:17;;;;;;;7.25;1.80;;;;;;;;;;5062500;28;20108;-70
2022/01/25 04:32:47;;;;;;;6.72;1.48;;;;;;;;;;5062411;28;20094;-70
2022/01/25 04:49:06;;;;;;;5.35;1.20;;;;;;;;;;5061980;28;20343;-69
2022/01/25 04:51:51;;;;;;;3.55;1.45;;;;;;;;;;5062344;28;20047;-70
2022/01/25 05:02:32;;;;;;;3.38;1.10;;;;;;;;;;5065949;28;20091;-70
2022/01/25 05:05:24;;;;;;;5.47;1.52;;;;;;;;;;5066172;28;20037;-70
2022/01/25 05:07:52;;;;;;;4.38;0.90;;;;;;;;;;5065223;28;20033;-70
2022/01/25 05:10:21;;;;;;;3.10;1.48;;;;;;;;;;5048195;28;20045;-69
2022/01/25 05:13:40;;;;;;;5.63;1.10;;;;;;;;;;5047753;28;20021;-69
2022/01/25 05:23:22;;;;;;;4.05;1.40;;;;;;;;;;5065771;28;20125;-69
2022/01/25 05:25:47;;;;;;;4.00;1.15;;;;;;;;;;5065757;28;20040;-70
2022/01/25 05:28:13;;;;;;;5.35;1.17;;;;;;;;;;5066005;28;20033;-72
2022/01/25 05:30:38;;;;;;;7.47;1.30;;;;;;;;;;5047915;28;20057;-70
2022/01/25 05:33:04;;;;;;;6.28;1.65;;;;;;;;;;5065638;28;20027;-70
2022/01/25 05:35:32;;;;;;;8.48;1.50;;;;;;;;;;5066070;28;20044;-69
2022/01/25 05:37:58;;;;;;;3.30;1.38;;;;;;;;;;5065304;28;20521;-68
2022/01/25 05:40:40;;;;;;;4.28;1.35;;;;;;;;;;5065798;28;20067;-70
2022/01/25 05:46:12;;;;;;;6.32;1.17;;;;;;;;;;5065243;28;20461;-70
2022/01/25 05:48:38;;;;;;;6.13;1.63;;;;;;;;;;5047142;28;20040;-70
2022/01/25 05:51:04;;;;;;;4.85;1.27;;;;;;;;;;5065977;28;20092;-71
2022/01/25 05:53:31;;;;;;;8.85;1.52;;;;;;;;;;5046862;28;20052;-70
2022/01/25 05:55:56;;;;;;;7.43;1.63;;;;;;;;;;5065514;28;20036;-70
2022/01/25 05:58:25;;;;;;;8.73;1.55;;;;;;;;;;5065394;28;20029;-70
2022/01/25 06:00:51;;;;;;;5.20;1.40;;;;;;;;;;5065049;28;20035;-70
2022/01/25 06:03:17;;;;;;;5.47;1.35;;;;;;;;;;5064403;28;20095;-69
2022/01/25 06:05:43;;;;;;;6.50;1.40;;;;;;;;;;5064326;28;20049;-70
2022/01/25 06:08:08;;;;;;;7.40;1.67;;;;;;;;;;5064144;28;20048;-69
2022/01/25 06:10:37;;;;;;;6.13;1.27;;;;;;;;;;5065236;28;20032;-70
2022/01/25 06:13:03;;;;;;;6.65;1.65;;;;;;;;;;5065513;28;20029;-69
2022/01/25 06:15:29;;;;;;;4.28;1.17;;;;;;;;;;5065082;28;20135;-71
2022/01/25 06:17:54;;;;;;;8.38;1.85;;;;;;;;;;5065106;28;20076;-70
2022/01/25 06:20:20;;;;;;;4.72;1.50;;;;;;;;;;5065133;28;20047;-71
2022/01/25 06:22:45;;;;;;;7.13;1.85;;;;;;;;;;5064659;28;20029;-69
2022/01/25 06:25:11;;;;;;;7.28;1.70;;;;;;;;;;5064406;28;20029;-70
2022/01/25 06:27:39;;;;;;;7.47;1.52;;;;;;;;;;5064620;28;20025;-70
2022/01/25 06:30:11;;;;;;;7.18;2.30;;;;;;;;;;5064964;28;20021;-70
2022/01/25 06:32:36;;;;;;;7.88;1.50;;;;;;;;;;5046637;28;20116;-69
2022/01/25 06:35:04;;;;;;;4.97;1.70;;;;;;;;;;5064821;28;20055;-70
2022/01/25 06:37:30;;;;;;;10.43;2.00;;;;;;;;;;5064520;28;20033;-69
2022/01/25 06:39:56;;;;;;;10.00;1.80;;;;;;;;;;5064879;28;20063;-69
2022/01/25 06:42:22;;;;;;;8.73;1.58;;;;;;;;;;5064841;28;20085;-71
2022/01/25 06:44:52;;;;;;;5.50;1.55;;;;;;;;;;5064795;28;20055;-70
2022/01/25 06:47:17;;;;;;;7.20;1.73;;;;;;;;;;5064662;28;20037;-70
2022/01/25 06:49:46;;;;;;;5.25;1.73;;;;;;;;;;5064245;28;20055;-68
2022/01/25 06:52:11;;;;;;;8.77;1.85;;;;;;;;;;5064267;28;20037;-70
2022/01/25 06:54:37;;;;;;;10.43;2.28;;;;;;;;;;5063912;28;20032;-70
2022/01/25 06:57:06;;;;;;;9.93;2.15;;;;;;;;;;5064561;28;20060;-70
2022/01/25 06:59:31;;;;;;;6.75;2.00;;;;;;;;;;5064338;28;20033;-69
2022/01/25 07:01:57;;;;;;;10.98;2.20;;;;;;;;;;5046180;28;20029;-69
2022/01/25 07:04:22;;;;;;;7.68;1.45;;;;;;;;;;5053448;28;20059;-70
2022/01/25 07:06:48;;;;;;;6.63;1.77;;;;;;;;;;5084457;28;20025;-70
2022/01/25 07:09:16;;;;;;;9.00;2.15;;;;;;;;;;5083037;28;20021;-71
2022/01/25 07:11:41;;;;;;;7.93;1.80;;;;;;;;;;5083947;28;20080;-68
2022/01/25 07:14:07;;;;;;;12.07;2.17;;;;;;;;;;5084162;28;20055;-69
2022/01/25 07:16:32;;;;;;;11.70;2.15;;;;;;;;;;5084208;28;20059;-69
2022/01/25 07:18:58;;;;;;;5.88;1.77;;;;;;;;;;5083768;28;20028;-69
2022/01/25 07:21:23;;;;;;;5.55;1.90;;;;;;;;;;5084490;28;20468;-69
2022/01/25 07:23:51;;;;;;;12.00;2.70;;;;;;;;;;5065469;28;20036;-69
2022/01/25 07:26:17;;;;;;;8.25;2.13;;;;;;;;;;5083604;28;20093;-70
2022/01/25 07:28:43;;;;;;;7.00;2.42;;;;;;;;;;5083540;28;20024;-69
2022/01/25 07:31:09;;;;;;;10.38;1.90;;;;;;;;;;5083429;28;20029;-70
2022/01/25 07:33:34;;;;;;;8.05;1.75;;;;;;;;;;5083789;28;20054;-69
2022/01/25 07:36:00;;;;;;;9.57;2.05;;;;;;;;;;5084006;28;20040;-72
2022/01/25 07:38:26;;;;;;;9.48;2.50;;;;;;;;;;5082827;28;20086;-69
2022/01/25 07:40:51;;;;;;;11.38;2.88;;;;;;;;;;5083480;28;20044;-69
2022/01/25 07:43:17;;;;;;;8.85;2.25;;;;;;;;;;5083092;28;20036;-70
2022/01/25 07:45:49;;;;;;;9.32;2.15;;;;;;;;;;5083118;28;20059;-70
2022/01/25 07:48:15;;;;;;;9.35;2.25;;;;;;;;;;5083372;28;20060;-69
2022/01/25 07:50:40;;;;;;;11.65;2.80;;;;;;;;;;5082497;28;20364;-70
2022/01/25 07:53:08;;;;;;;10.38;2.40;;;;;;;;;;5083214;28;20028;-69
2022/01/25 07:55:34;;;;;;;12.65;2.25;;;;;;;;;;5083214;28;20047;-69
2022/01/25 07:58:00;;;;;;;11.02;2.30;;;;;;;;;;5083195;28;20021;-69
2022/01/25 08:00:25;;;;;;;9.35;2.63;;;;;;;;;;5065327;28;20129;-69
2022/01/25 08:02:51;;;;;;;10.02;2.22;;;;;;;;;;5082686;28;20039;-72
2022/01/25 08:05:19;;;;;;;8.93;2.60;;;;;;;;;;5083193;28;20045;-68
2022/01/25 08:07:47;;;;;;;9.02;2.70;;;;;;;;;;5083130;28;20048;-69
2022/01/25 08:10:12;;;;;;;9.38;2.75;;;;;;;;;;5083019;28;20037;-70
2022/01/25 08:12:38;;;;;;;14.18;2.92;;;;;;;;;;5082970;28;20054;-69
2022/01/25 08:15:06;;;;;;;11.05;2.40;;;;;;;;;;5083186;28;20025;-69
2022/01/25 08:17:32;;;;;;;12.68;2.60;;;;;;;;;;5081481;28;20038;-68
2022/01/25 08:19:57;;;;;;;9.10;2.63;;;;;;;;;;5082710;28;20048;-69
2022/01/25 08:22:24;;;;;;;6.72;2.45;;;;;;;;;;5082957;28;20021;-69
2022/01/25 08:24:50;;;;;;;11.30;3.25;;;;;;;;;;5083114;28;20032;-68
2022/01/25 08:27:19;;;;;;;10.57;2.17;;;;;;;;;;5083014;28;20037;-68
2022/01/25 08:29:45;;;;;;;9.77;2.20;;;;;;;;;;5081451;28;20048;-69
2022/01/25 08:32:11;;;;;;;10.57;2.00;;;;;;;;;;5082588;28;20544;-70
2022/01/25 08:34:36;;;;;;;9.35;2.20;;;;;;;;;;5082178;28;20035;-69
2022/01/25 08:37:02;;;;;;;9.35;2.00;;;;;;;;;;5082970;28;20024;-69
2022/01/25 08:39:28;;;;;;;7.75;2.15;;;;;;;;;;5083042;28;20115;-68
2022/01/25 08:41:54;;;;;;;6.75;1.73;;;;;;;;;;5082461;28;20036;-68
2022/01/25 08:44:20;;;;;;;10.95;2.55;;;;;;;;;;5081137;28;20024;-68
2022/01/25 08:46:45;;;;;;;9.50;2.20;;;;;;;;;;5082822;28;20103;-68
2022/01/25 08:49:10;;;;;;;9.68;2.95;;;;;;;;;;5082485;28;20036;-69
2022/01/25 08:51:36;;;;;;;10.32;2.60;;;;;;;;;;5082331;28;20032;-69
2022/01/25 08:54:01;;;;;;;8.35;1.92;;;;;;;;;;5082008;28;20047;-69
2022/01/25 08:56:27;;;;;;;10.90;2.90;;;;;;;;;;5082373;28;20028;-68
2022/01/25 08:58:53;;;;;;;9.95;2.22;;;;;;;;;;5081887;28;20520;-68
2022/01/25 09:01:18;;;;;;;10.10;2.03;;;;;;;;;;5082602;28;20032;-69
2022/01/25 09:03:44;;;;;;;8.50;1.70;;;;;;;;;;5081389;28;20032;-69
2022/01/25 09:06:09;;;;;;;12.07;2.38;;;;;;;;;;5064632;28;20032;-69
2022/01/25 09:08:35;;;;;;;7.65;2.35;;;;;;;;;;5082313;28;20101;-68
2022/01/25 09:11:03;;;;;;;13.25;2.17;;;;;;;;;;5081372;28;20063;-71
2022/01/25 09:13:30;;;;;;;6.03;1.58;;;;;;;;;;5080463;28;20111;-69
2022/01/25 09:15:56;;;;;;;7.05;1.70;;;;;;;;;;5080932;28;20044;-68
2022/01/25 09:18:22;;;;;;;6.45;1.52;;;;;;;;;;5080873;28;20038;-70
2022/01/25 09:20:47;;;;;;;9.82;2.10;;;;;;;;;;5080816;28;20032;-70
2022/01/25 09:23:16;;;;;;;4.65;1.33;;;;;;;;;;5080682;28;20036;-70
2022/01/25 09:25:41;;;;;;;8.18;1.70;;;;;;;;;;5062500;28;20040;-70
2022/01/25 09:28:07;;;;;;;5.90;1.40;;;;;;;;;;5079492;28;20028;-69
2022/01/25 09:30:32;;;;;;;7.95;1.70;;;;;;;;;;5081247;28;20032;-68
2022/01/25 09:32:57;;;;;;;6.35;1.70;;;;;;;;;;5082303;28;20036;-68
2022/01/25 09:35:23;;;;;;;4.15;1.48;;;;;;;;;;5063983;28;20033;-69
2022/01/25 09:37:49;;;;;;;9.23;1.30;;;;;;;;;;5081859;28;20389;-69
2022/01/25 09:40:15;;;;;;;2.85;1.10;;;;;;;;;;5081862;28;20035;-69
2022/01/25 09:42:40;;;;;;;4.55;1.23;;;;;;;;;;5083725;28;20078;-69
2022/01/25 09:45:07;;;;;;;6.65;1.30;;;;;;;;;;5086048;28;20028;-69
2022/01/25 09:47:33;;;;;;;5.65;1.23;;;;;;;;;;5085100;28;20064;-69
2022/01/25 09:49:58;;;;;;;4.78;1.20;;;;;;;;;;5085113;28;20036;-69
2022/01/25 09:52:23;;;;;;;3.03;1.23;;;;;;;;;;5085747;28;20036;-69
2022/01/25 09:54:54;;;;;;;4.40;0.95;;;;;;;;;;5085915;28;20032;-68
2022/01/25 09:57:20;;;;;;;6.38;1.48;;;;;;;;;;5085221;28;20029;-70
2022/01/25 09:59:46;;;;;;;2.50;0.90;;;;;;;;;;5085832;28;20078;-68
2022/01/25 10:02:11;;;;;;;4.28;1.70;;;;;;;;;;5085825;28;20032;-69
2022/01/25 10:04:39;;;;;;;6.68;1.42;;;;;;;;;;5085323;28;20056;-68
2022/01/25 10:07:05;;;;;;;4.30;1.20;;;;;;;;;;5067264;28;20024;-70
2022/01/25 10:09:38;;;;;;;2.78;1.17;;;;;;;;;;5067461;28;20031;-69
2022/01/25 10:12:21;;;;;;;4.50;1.30;;;;;;;;;;5085789;28;20032;-68
2022/01/25 10:15:09;;;;;;;3.15;1.25;;;;;;;;;;5085827;28;20021;-69
2022/01/25 10:17:36;;;;;;;2.97;1.10;;;;;;;;;;5067286;28;20036;-69
2022/01/25 10:20:04;;;;;;;5.03;1.20;;;;;;;;;;5085212;28;20016;-69
2022/01/25 10:22:41;;;;;;;5.88;1.20;;;;;;;;;;5085161;28;20029;-68
2022/01/25 10:25:07;;;;;;;5.40;1.10;;;;;;;;;;5085751;28;20024;-68
2022/01/25 10:27:59;;;;;;;5.72;1.27;;;;;;;;;;5085249;28;20031;-68
2022/01/25 10:30:25;;;;;;;3.40;1.23;;;;;;;;;;5085492;28;20035;-69
2022/01/25 10:32:52;;;;;;;6.72;0.90;;;;;;;;;;5085125;28;20037;-69
2022/01/25 10:35:17;;;;;;;4.13;0.82;;;;;;;;;;5085007;28;20578;-69
2022/01/25 10:37:43;;;;;;;2.90;0.90;;;;;;;;;;5066783;28;20025;-68
2022/01/25 10:40:09;;;;;;;4.90;1.08;;;;;;;;;;5084985;28;20631;-69
2022/01/25 10:42:35;;;;;;;4.47;1.00;;;;;;;;;;5085374;28;20106;-69
2022/01/25 10:45:10;;;;;;;2.70;1.08;;;;;;;;;;5084634;28;20039;-70
2022/01/25 10:47:51;;;;;;;2.92;0.90;;;;;;;;;;5083510;28;20067;-69
2022/01/25 10:50:20;;;;;;;3.17;1.10;;;;;;;;;;5084809;28;20032;-69
2022/01/25 10:52:47;;;;;;;4.05;0.90;;;;;;;;;;5066213;28;20103;-69
2022/01/25 10:55:13;;;;;;;2.50;1.00;;;;;;;;;;5082838;28;20040;-70
2022/01/25 10:57:39;;;;;;;2.55;0.77;;;;;;;;;;5083401;28;20451;-69
2022/01/25 11:00:09;;;;;;;1.85;0.70;;;;;;;;;;5084609;28;20102;-68
2022/01/25 11:02:35;;;;;;;2.72;0.82;;;;;;;;;;5084369;28;20066;-70
2022/01/25 11:05:09;;;;;;;2.47;0.75;;;;;;;;;;5084169;28;20056;-69
2022/01/25 11:07:39;;;;;;;2.42;0.98;;;;;;;;;;5066141;28;20426;-69
2022/01/25 11:10:05;;;;;;;4.30;1.00;;;;;;;;;;5084299;28;20067;-69
2022/01/25 11:12:36;;;;;;;4.13;1.23;;;;;;;;;;5066363;28;20044;-69
2022/01/25 11:15:04;;;;;;;3.30;0.80;;;;;;;;;;5084507;28;20037;-69
2022/01/25 11:17:31;;;;;;;1.70;0.75;;;;;;;;;;5084009;28;20032;-69
2022/01/25 11:19:58;;;;;;;2.22;0.60;;;;;;;;;;5084157;28;20028;-69
2022/01/25 11:22:25;;;;;;;3.53;0.90;;;;;;;;;;5082525;28;20032;-70
2022/01/25 11:24:57;;;;;;;0.73;0.40;;;;;;;;;;5084035;28;20059;-69
2022/01/25 11:27:25;;;;;;;4.25;0.82;;;;;;;;;;5083480;28;20054;-69
2022/01/25 11:29:53;;;;;;;4.90;0.80;;;;;;;;;;5084038;28;20028;-69
2022/01/25 11:32:24;;;;;;;2.83;0.60;;;;;;;;;;5083646;28;20210;-69
2022/01/25 11:34:51;;;;;;;3.22;0.80;;;;;;;;;;5083676;28;20357;-69
2022/01/25 11:37:17;;;;;;;2.10;0.60;;;;;;;;;;5083663;28;20039;-69
2022/01/25 11:39:45;;;;;;;2.95;0.65;;;;;;;;;;5083297;28;20020;-70
2022/01/25 11:42:23;;;;;;;2.35;0.95;;;;;;;;;;5065543;28;20096;-68
2022/01/25 11:44:49;;;;;;;2.78;0.80;;;;;;;;;;5084122;28;20044;-69
2022/01/25 11:47:17;;;;;;;2.65;0.75;;;;;;;;;;5065693;28;20092;-70
2022/01/25 11:49:51;;;;;;;2.95;0.93;;;;;;;;;;5065746;28;20029;-69
2022/01/25 11:52:16;;;;;;;9.13;1.00;;;;;;;;;;5083341;28;20024;-69
2022/01/25 11:54:43;;;;;;;4.47;0.50;;;;;;;;;;5083834;28;20042;-68
2022/01/25 11:57:20;;;;;;;1.42;0.65;;;;;;;;;;5082926;28;20021;-70
2022/01/25 11:59:57;;;;;;;4.00;0.73;;;;;;;;;;5083260;28;20024;-69
2022/01/25 12:02:43;;;;;;;1.77;0.60;;;;;;;;;;5064650;28;20035;-69
2022/01/25 12:05:14;;;;;;;2.33;0.88;;;;;;;;;;5082505;28;20071;-70
2022/01/25 12:07:59;;;;;;;4.55;0.63;;;;;;;;;;5083065;28;20120;-69
2022/01/25 12:10:37;;;;;;;4.15;0.80;;;;;;;;;;5083050;28;20039;-69
2022/01/25 12:13:18;;;;;;;2.88;0.57;;;;;;;;;;5083093;28;20037;-68
2022/01/25 12:15:45;;;;;;;3.10;1.02;;;;;;;;;;5082585;28;20040;-70
2022/01/25 12:18:49;;;;;;;3.60;0.90;;;;;;;;;;5082811;28;20039;-69
2022/01/25 12:21:17;;;;;;;6.15;0.88;;;;;;;;;;5082155;28;20035;-71
2022/01/25 12:23:46;;;;;;;2.75;0.68;;;;;;;;;;5082874;28;20032;-71
2022/01/25 12:26:32;;;;;;;3.55;0.88;;;;;;;;;;5083142;28;20107;-69
2022/01/25 12:29:43;;;;;;;3.92;0.95;;;;;;;;;;5082719;28;20032;-69
2022/01/25 12:32:25;;;;;;;2.95;1.00;;;;;;;;;;5076331;28;20131;-69
2022/01/25 12:35:10;;;;;;;1.13;0.70;;;;;;;;;;5083103;28;20052;-69
2022/01/25 12:37:45;;;;;;;2.75;0.70;;;;;;;;;;5064644;28;20024;-70
2022/01/25 12:40:27;;;;;;;2.38;0.73;;;;;;;;;;5082808;28;20044;-69
2022/01/25 12:43:03;;;;;;;2.35;0.60;;;;;;;;;;5082738;28;20028;-70
2022/01/25 12:45:40;;;;;;;2.72;0.77;;;;;;;;;;5082927;28;20024;-70
2022/01/25 12:48:08;;;;;;;3.00;1.13;;;;;;;;;;5082464;28;20028;-69
2022/01/25 12:50:39;;;;;;;4.10;1.00;;;;;;;;;;5082339;28;20032;-69
2022/01/25 12:53:06;;;;;;;4.47;0.95;;;;;;;;;;5082675;28;20111;-69
2022/01/25 12:55:41;;;;;;;1.75;0.50;;;;;;;;;;5082548;28;20492;-70
2022/01/25 12:58:07;;;;;;;4.47;0.65;;;;;;;;;;5082668;28;20024;-67
2022/01/25 13:00:44;;;;;;;2.40;0.70;;;;;;;;;;5082182;28;20492;-69
2022/01/25 13:03:17;;;;;;;3.33;0.80;;;;;;;;;;5082891;28;20376;-68
2022/01/25 13:05:51;;;;;;;1.93;0.53;;;;;;;;;;5060835;28;20045;-69
2022/01/25 13:08:28;;;;;;;3.35;0.75;;;;;;;;;;5062719;28;20316;-68
2022/01/25 13:11:15;;;;;;;3.78;1.02;;;;;;;;;;5062366;28;20116;-68
2022/01/25 13:13:56;;;;;;;1.98;0.65;;;;;;;;;;5060584;28;20040;-68
2022/01/25 13:16:43;;;;;;;4.88;0.77;;;;;;;;;;5060774;28;20029;-69
2022/01/25 13:19:10;;;;;;;3.00;0.82;;;;;;;;;;5066157;28;20029;-70
2022/01/25 13:21:44;;;;;;;3.17;0.77;;;;;;;;;;5066530;28;20036;-68
2022/01/25 13:24:16;;;;;;;5.50;0.90;;;;;;;;;;5064767;28;20039;-69
2022/01/25 13:27:08;;;;;;;2.28;0.73;;;;;;;;;;5066269;28;20033;-69
2022/01/25 13:32:33;;;;;;;3.33;1.15;;;;;;;;;;5065452;28;20032;-69
2022/01/25 13:35:04;;;;;;;;;;;;;;;;;;5066228;28;20332;-69
2022/01/25 13:37:30;;;;;;;2.17;0.63;;;;;;;;;;5065403;28;20007;-69
2022/01/25 13:40:04;;;;;;;2.85;0.85;;;;;;;;;;5064356;28;20052;-69
2022/01/25 13:42:41;;;;;;;2.53;0.70;;;;;;;;;;5065492;28;20094;-68
2022/01/25 13:48:03;;;;;;;0.82;0.60;;;;;;;;;;5065860;28;20035;-68
2022/01/25 13:50:29;;;;;;;2.10;0.50;;;;;;;;;;5065917;28;20025;-69
2022/01/25 13:52:54;;;;;;;4.70;0.77;;;;;;;;;;5065076;28;20090;-69
2022/01/25 13:55:20;;;;;;;3.50;0.60;;;;;;;;;;5065453;28;20068;-69
2022/01/25 13:57:45;;;;;;;4.40;1.00;;;;;;;;;;5065190;28;20087;-70
2022/01/25 14:00:12;;;;;;;3.13;0.82;;;;;;;;;;5065278;28;20119;-68
2022/01/25 14:02:38;;;;;;;3.20;0.98;;;;;;;;;;5064870;28;20048;-68
2022/01/25 14:05:04;;;;;;;3.20;0.80;;;;;;;;;;5064277;28;20064;-70
2022/01/25 14:07:39;;;;;;;2.17;0.75;;;;;;;;;;5064509;28;20493;-69
2022/01/25 14:10:07;;;;;;;3.70;1.20;;;;;;;;;;5064211;28;20052;-71
2022/01/25 14:23:31;;;;;;;1.58;0.70;;;;;;;;;;5065018;28;20040;-69
2022/01/25 14:26:08;;;;;;;5.63;0.80;;;;;;;;;;5065336;28;20025;-69
2022/01/25 14:28:40;;;;;;;7.05;1.20;;;;;;;;;;5064655;28;20044;-70
2022/01/25 14:31:14;;;;;;;5.90;1.42;;;;;;;;;;5065208;28;20116;-68
2022/01/25 14:33:49;;;;;;;2.67;0.90;;;;;;;;;;5063420;28;20036;-69
2022/01/25 14:36:15;;;;;;;6.63;1.42;;;;;;;;;;5065075;28;20033;-68
2022/01/25 14:38:42;;;;;;;5.13;1.48;;;;;;;;;;5064622;28;20033;-68
2022/01/25 14:41:09;;;;;;;4.82;1.40;;;;;;;;;;5064838;28;20044;-68
2022/01/25 14:43:37;;;;;;;4.45;1.50;;;;;;;;;;5064555;28;20093;-69
2022/01/25 14:46:11;;;;;;;4.50;1.25;;;;;;;;;;5064552;28;20365;-68
2022/01/25 14:48:41;;;;;;;6.22;1.27;;;;;;;;;;5063785;28;20044;-68
2022/01/25 14:51:09;;;;;;;5.88;1.38;;;;;;;;;;5064201;28;20025;-68
2022/01/25 14:53:35;;;;;;;4.22;1.20;;;;;;;;;;5064103;28;20044;-69
2022/01/25 14:56:02;;;;;;;6.05;1.52;;;;;;;;;;5063157;28;20063;-68
2022/01/25 15:01:14;;;;;;;6.75;1.33;;;;;;;;;;5064582;28;20060;-68
2022/01/25 15:03:44;;;;;;;6.18;1.65;;;;;;;;;;5063654;28;20507;-68
2022/01/25 15:06:11;;;;;;;4.07;1.00;;;;;;;;;;5064145;28;20049;-70
2022/01/25 15:08:36;;;;;;;7.10;1.45;;;;;;;;;;5063495;28;20093;-69
2022/01/25 15:11:02;;;;;;;3.10;1.17;;;;;;;;;;5063817;28;20025;-69
2022/01/25 15:13:29;;;;;;;6.22;1.05;;;;;;;;;;5063864;28;20029;-69
2022/01/25 15:15:57;;;;;;;8.10;0.95;;;;;;;;;;5063484;28;20040;-69
2022/01/25 15:18:29;;;;;;;4.05;0.90;;;;;;;;;;5063632;28;20086;-68
2022/01/25 15:20:57;;;;;;;3.25;0.90;;;;;;;;;;5065191;28;20047;-68
2022/01/25 15:23:24;;;;;;;1.90;0.73;;;;;;;;;;5063942;28;20099;-70
2022/01/25 15:25:57;;;;;;;5.78;2.08;;;;;;;;;;5064475;28;20036;-68
2022/01/25 15:28:24;;;;;;;9.98;2.85;;;;;;;;;;5064807;28;20021;-68
2022/01/25 15:30:50;;;;;;;8.15;2.60;;;;;;;;;;5064605;28;20025;-69
2022/01/25 15:33:16;;;;;;;11.02;2.95;;;;;;;;;;5064828;28;20048;-68
2022/01/25 15:35:42;;;;;;;6.43;1.73;;;;;;;;;;5063378;28;20100;-68
2022/01/25 15:38:08;;;;;;;9.35;2.90;;;;;;;;;;5064713;28;20025;-68
2022/01/25 15:40:34;;;;;;;8.77;3.40;;;;;;;;;;5063852;28;20032;-69
2022/01/25 15:43:02;;;;;;;9.63;3.30;;;;;;;;;;5062141;28;20479;-69
2022/01/25 15:45:31;;;;;;;7.70;2.08;;;;;;;;;;5061548;28;20029;-70
2022/01/25 15:47:57;;;;;;;3.08;0.93;;;;;;;;;;5062051;28;20115;-69
2022/01/25 15:50:25;;;;;;;3.92;1.13;;;;;;;;;;5060840;28;20033;-69
2022/01/25 15:52:51;;;;;;;5.07;1.10;;;;;;;;;;5062000;28;20560;-68
2022/01/25 15:55:18;;;;;;;6.55;1.08;;;;;;;;;;5063111;28;20018;-70
2022/01/25 15:57:44;;;;;;;4.88;0.88;;;;;;;;;;5061441;28;20033;-68
2022/01/25 16:00:10;;;;;;;4.10;0.77;;;;;;;;;;5063299;28;20116;-68
2022/01/25 16:02:35;;;;;;;5.45;1.67;;;;;;;;;;5063229;28;20033;-69
2022/01/25 16:05:01;;;;;;;3.53;0.90;;;;;;;;;;5063158;28;20083;-70
2022/01/25 16:07:26;;;;;;;2.47;0.73;;;;;;;;;;5063458;28;20025;-68
2022/01/25 16:09:57;;;;;;;5.10;1.88;;;;;;;;;;5063582;28;20029;-70
2022/01/25 16:12:24;;;;;;;7.82;1.15;;;;;;;;;;5045228;28;20033;-69
2022/01/25 16:14:50;;;;;;;3.00;1.33;;;;;;;;;;5061662;28;20044;-68
2022/01/25 16:17:15;;;;;;;6.50;0.93;;;;;;;;;;5063238;28;20033;-69
2022/01/25 16:19:41;;;;;;;2.72;1.02;;;;;;;;;;5063267;28;20028;-67
2022/01/25 16:22:07;;;;;;;5.40;0.95;;;;;;;;;;5063085;28;20033;-69
2022/01/25 16:24:33;;;;;;;4.68;1.27;;;;;;;;;;5063047;28;20025;-70
2022/01/25 16:26:59;;;;;;;3.85;1.10;;;;;;;;;;5063446;28;20029;-68
2022/01/25 16:29:25;;;;;;;7.55;0.88;;;;;;;;;;5062983;28;20529;-68
2022/01/25 16:31:52;;;;;;;7.75;1.10;;;;;;;;;;5063384;28;20433;-70
2022/01/25 16:34:18;;;;;;;3.65;1.20;;;;;;;;;;5063060;28;20538;-67
2022/01/25 16:36:44;;;;;;;4.95;1.15;;;;;;;;;;5061763;28;20104;-69
2022/01/25 16:39:12;;;;;;;7.40;1.40;;;;;;;;;;5062859;28;20029;-70
2022/01/25 16:41:37;;;;;;;5.85;1.60;;;;;;;;;;5063114;28;20036;-69
2022/01/25 16:44:03;;;;;;;5.05;1.83;;;;;;;;;;5061346;28;20025;-67
2022/01/25 16:46:28;;;;;;;6.65;1.73;;;;;;;;;;5063028;28;20036;-70
2022/01/25 16:48:54;;;;;;;4.57;1.33;;;;;;;;;;5062593;28;20021;-68
2022/01/25 16:51:20;;;;;;;4.47;1.45;;;;;;;;;;5062922;28;20234;-69
2022/01/25 16:53:47;;;;;;;4.75;1.45;;;;;;;;;;5062157;28;20481;-69